createdAt,value
2017-12-20T00:00:00.367Z,9.57
2017-12-20T00:02:26.849Z,9.77
2017-12-20T00:04:53.987Z,9.40
2017-12-20T00:07:21.177Z,9.70
2017-12-20T00:09:47.673Z,9.45
2017-12-20T00:12:14.259Z,9.40
2017-12-20T00:14:40.705Z,9.75
2017-12-20T00:17:07.169Z,9.93
2017-12-20T00:19:33.598Z,9.88
2017-12-20T00:22:00.768Z,10.30
2017-12-20T00:24:27.177Z,10.40
2017-12-20T00:26:53.569Z,11.38
2017-12-20T00:29:19.976Z,11.25
2017-12-20T00:31:47.101Z,11.40
2017-12-20T00:34:13.436Z,11.88
2017-12-20T00:36:40.552Z,10.95
2017-12-20T00:39:06.879Z,13.50
2017-12-20T00:41:33.184Z,12.13
2017-12-20T00:43:59.589Z,13.40
2017-12-20T00:46:26.024Z,11.20
2017-12-20T00:48:52.492Z,13.43
2017-12-20T00:51:18.902Z,12.60
2017-12-20T00:53:46.041Z,12.37
2017-12-20T00:56:13.173Z,14.02
2017-12-20T00:58:39.609Z,13.90
2017-12-20T01:01:06.761Z,12.55
2017-12-20T01:03:33.913Z,12.40
2017-12-20T01:06:00.473Z,12.20
2017-12-20T01:08:26.945Z,11.48
2017-12-20T01:10:53.394Z,10.20
2017-12-20T01:13:20.592Z,10.63
2017-12-20T01:15:47.025Z,10.63
2017-12-20T01:18:13.458Z,11.35
2017-12-20T01:20:39.893Z,10.40
2017-12-20T01:23:07.042Z,11.43
2017-12-20T01:25:33.457Z,11.30
2017-12-20T01:27:59.881Z,10.30
2017-12-20T01:30:27.046Z,11.25
2017-12-20T01:32:54.181Z,9.82
2017-12-20T01:35:21.359Z,11.40
2017-12-20T01:37:47.797Z,10.57
2017-12-20T01:40:14.254Z,10.35
2017-12-20T01:42:40.710Z,9.98
2017-12-20T01:45:07.236Z,10.60
2017-12-20T01:47:34.418Z,9.93
2017-12-20T01:50:01.634Z,10.63
2017-12-20T01:52:28.077Z,9.75
2017-12-20T01:54:54.492Z,10.13
2017-12-20T01:57:20.974Z,8.52
2017-12-20T01:59:48.122Z,8.80
2017-12-20T02:02:14.540Z,7.68
2017-12-20T02:04:41.794Z,9.13
2017-12-20T02:07:08.961Z,8.32
2017-12-20T02:09:36.144Z,7.53
2017-12-20T02:12:02.617Z,7.75
2017-12-20T02:14:29.164Z,8.27
2017-12-20T02:16:55.607Z,8.43
2017-12-20T02:19:22.812Z,7.82
2017-12-20T02:21:49.292Z,7.45
2017-12-20T02:24:15.768Z,7.37
2017-12-20T02:26:42.265Z,6.72
2017-12-20T02:29:08.729Z,6.28
2017-12-20T02:31:35.949Z,7.05
2017-12-20T02:34:02.413Z,6.75
2017-12-20T02:36:28.881Z,7.05
2017-12-20T02:38:55.508Z,8.30
2017-12-20T02:41:22.006Z,8.13
2017-12-20T02:43:48.484Z,7.78
2017-12-20T02:46:14.918Z,7.00
2017-12-20T02:48:42.172Z,7.43
2017-12-20T02:51:09.389Z,6.45
2017-12-20T02:53:35.856Z,6.72
2017-12-20T02:56:02.321Z,6.65
2017-12-20T02:58:28.796Z,7.68
2017-12-20T03:00:56.746Z,6.82
2017-12-20T03:03:23.333Z,6.90
2017-12-20T03:05:49.771Z,6.82
2017-12-20T03:08:16.249Z,5.70
2017-12-20T03:10:42.772Z,6.22
2017-12-20T03:13:09.300Z,6.50
2017-12-20T03:15:35.761Z,6.80
2017-12-20T03:18:02.214Z,6.20
2017-12-20T03:20:28.646Z,7.18
2017-12-20T03:22:55.069Z,6.10
2017-12-20T03:25:21.458Z,7.75
2017-12-20T03:27:47.932Z,6.50
2017-12-20T03:30:14.366Z,6.57
2017-12-20T03:32:40.842Z,6.57
2017-12-20T03:35:07.266Z,6.82
2017-12-20T03:37:35.632Z,6.00
2017-12-20T03:40:02.095Z,6.70
2017-12-20T03:42:28.630Z,5.50
2017-12-20T03:44:55.797Z,6.32
2017-12-20T03:47:22.189Z,6.40
2017-12-20T03:49:48.667Z,6.03
2017-12-20T03:52:15.166Z,6.45
2017-12-20T03:54:42.397Z,5.65
2017-12-20T03:57:08.843Z,6.28
2017-12-20T03:59:36.037Z,6.50
2017-12-20T04:02:02.596Z,7.05
2017-12-20T04:04:29.027Z,6.95
2017-12-20T04:06:55.524Z,6.85
2017-12-20T04:09:21.973Z,7.00
2017-12-20T04:11:48.408Z,6.55
2017-12-20T04:14:14.872Z,5.95
2017-12-20T04:16:41.339Z,6.62
2017-12-20T04:19:07.805Z,6.72
2017-12-20T04:21:35.037Z,6.90
2017-12-20T04:24:01.529Z,6.82
2017-12-20T04:26:28.012Z,7.15
2017-12-20T04:28:55.162Z,7.87
2017-12-20T04:31:22.329Z,6.75
2017-12-20T04:33:48.986Z,5.85
2017-12-20T04:36:15.379Z,7.12
2017-12-20T04:38:42.515Z,7.57
2017-12-20T04:41:08.953Z,7.30
2017-12-20T04:43:35.373Z,7.35
2017-12-20T04:46:01.817Z,6.85
2017-12-20T04:48:28.949Z,6.82
2017-12-20T04:50:55.377Z,6.70
2017-12-20T04:53:21.825Z,6.50
2017-12-20T04:55:48.234Z,6.70
2017-12-20T04:58:14.645Z,6.32
2017-12-20T05:00:41.069Z,6.62
2017-12-20T05:03:07.530Z,7.22
2017-12-20T05:05:34.052Z,7.43
2017-12-20T05:08:00.684Z,8.02
2017-12-20T05:10:27.096Z,7.95
2017-12-20T05:12:53.489Z,8.35
2017-12-20T05:15:19.934Z,6.65
2017-12-20T05:17:46.345Z,7.20
2017-12-20T05:20:12.780Z,7.47
2017-12-20T05:22:39.188Z,6.82
2017-12-20T05:25:05.608Z,7.68
2017-12-20T05:27:32.038Z,6.90
2017-12-20T05:29:58.474Z,8.50
2017-12-20T05:32:24.890Z,7.10
2017-12-20T05:34:51.325Z,9.18
2017-12-20T05:37:17.725Z,8.32
2017-12-20T05:39:44.898Z,8.18
2017-12-20T05:42:12.097Z,10.93
2017-12-20T05:44:39.395Z,9.55
2017-12-20T05:47:06.792Z,8.63
2017-12-20T05:49:33.208Z,10.48
2017-12-20T05:51:59.774Z,8.00
2017-12-20T05:54:26.193Z,9.90
2017-12-20T05:56:52.629Z,10.02
2017-12-20T05:59:19.080Z,10.48
2017-12-20T06:01:45.689Z,15.25
2017-12-20T06:04:12.105Z,10.18
2017-12-20T06:06:38.514Z,12.50
2017-12-20T06:09:05.708Z,11.65
2017-12-20T06:11:32.112Z,9.40
2017-12-20T06:13:58.557Z,11.70
2017-12-20T06:16:24.953Z,10.35
2017-12-20T06:18:52.129Z,9.98
2017-12-20T06:21:18.558Z,10.30
2017-12-20T06:23:44.957Z,10.88
2017-12-20T06:26:12.155Z,11.52
2017-12-20T06:28:38.564Z,11.23
2017-12-20T06:31:05.719Z,10.98
2017-12-20T06:33:32.490Z,10.80
2017-12-20T06:35:58.909Z,10.95
2017-12-20T06:38:25.302Z,11.50
2017-12-20T06:40:52.778Z,10.93
2017-12-20T06:43:19.198Z,10.30
2017-12-20T06:45:46.353Z,10.25
2017-12-20T06:48:13.516Z,10.32
2017-12-20T06:50:40.107Z,8.25
2017-12-20T06:53:06.675Z,8.75
2017-12-20T06:55:33.829Z,8.02
2017-12-20T06:58:00.353Z,9.05
2017-12-20T07:00:27.557Z,9.10
2017-12-20T07:02:54.748Z,9.60
2017-12-20T07:05:21.174Z,8.90
2017-12-20T07:07:47.601Z,12.98
2017-12-20T07:10:14.028Z,14.00
2017-12-20T07:12:40.433Z,13.38
2017-12-20T07:15:06.862Z,13.73
2017-12-20T07:17:33.309Z,11.45
2017-12-20T07:19:59.736Z,11.30
2017-12-20T07:22:26.145Z,40.25
2017-12-20T07:24:52.537Z,13.40
2017-12-20T07:27:18.997Z,7.50
2017-12-20T07:29:45.409Z,7.57
2017-12-20T07:32:12.588Z,8.85
2017-12-20T07:34:39.009Z,9.05
2017-12-20T07:37:05.473Z,9.68
2017-12-20T07:39:31.936Z,10.32
2017-12-20T07:41:59.152Z,11.18
2017-12-20T07:44:25.569Z,7.87
2017-12-20T07:46:52.025Z,8.20
2017-12-20T07:49:18.478Z,8.48
2017-12-20T07:51:44.873Z,10.50
2017-12-20T07:54:12.328Z,9.38
2017-12-20T07:56:38.774Z,7.10
2017-12-20T07:59:05.180Z,7.85
2017-12-20T08:01:32.347Z,10.35
2017-12-20T08:03:58.734Z,9.50
2017-12-20T08:06:25.189Z,8.57
2017-12-20T08:08:51.605Z,7.53
2017-12-20T08:11:18.002Z,8.63
2017-12-20T08:13:44.421Z,9.00
2017-12-20T08:16:10.879Z,10.50
2017-12-20T08:18:37.353Z,8.35
2017-12-20T08:21:04.481Z,9.23
2017-12-20T08:23:30.881Z,9.68
2017-12-20T08:25:57.340Z,10.75
2017-12-20T08:28:23.767Z,8.88
2017-12-20T08:30:50.209Z,9.48
2017-12-20T08:33:16.703Z,9.90
2017-12-20T08:35:43.125Z,9.60
2017-12-20T08:38:09.544Z,8.98
2017-12-20T08:40:36.002Z,10.45
2017-12-20T08:43:02.416Z,8.63
2017-12-20T08:45:28.848Z,9.65
2017-12-20T08:47:55.282Z,9.25
2017-12-20T08:50:21.750Z,8.95
2017-12-20T08:52:48.943Z,8.25
2017-12-20T08:55:17.120Z,10.00
2017-12-20T08:57:44.273Z,8.85
2017-12-20T09:00:11.431Z,9.73
2017-12-20T09:02:37.897Z,7.93
2017-12-20T09:05:04.305Z,7.40
2017-12-20T09:07:31.659Z,8.38
2017-12-20T09:09:58.100Z,8.45
2017-12-20T09:12:24.526Z,7.70
2017-12-20T09:14:50.948Z,7.50
2017-12-20T09:17:17.420Z,7.70
2017-12-20T09:19:43.830Z,8.90
2017-12-20T09:22:10.300Z,8.05
2017-12-20T09:24:36.693Z,8.38
2017-12-20T09:27:03.140Z,7.53
2017-12-20T09:29:29.548Z,9.80
2017-12-20T09:31:55.973Z,7.32
2017-12-20T09:34:22.454Z,7.75
2017-12-20T09:36:49.019Z,7.87
2017-12-20T09:39:16.321Z,10.75
2017-12-20T09:41:42.730Z,6.62
2017-12-20T09:44:09.924Z,6.60
2017-12-20T09:46:36.557Z,7.28
2017-12-20T09:49:03.024Z,7.12
2017-12-20T09:51:29.441Z,6.65
2017-12-20T09:53:56.641Z,6.62
2017-12-20T09:56:23.071Z,7.25
2017-12-20T09:58:49.489Z,6.90
2017-12-20T10:01:15.969Z,7.60
2017-12-20T10:03:42.488Z,6.87
2017-12-20T10:06:08.917Z,6.95
2017-12-20T10:08:35.361Z,6.75
2017-12-20T10:11:01.919Z,6.80
2017-12-20T10:13:28.395Z,8.35
2017-12-20T10:15:54.842Z,7.32
2017-12-20T10:18:21.328Z,7.20
2017-12-20T10:20:47.768Z,5.70
2017-12-20T10:23:14.224Z,7.00
2017-12-20T10:25:41.427Z,6.65
2017-12-20T10:28:07.896Z,6.20
2017-12-20T10:30:34.329Z,6.00
2017-12-20T10:33:01.634Z,7.15
2017-12-20T10:35:28.121Z,7.25
2017-12-20T10:37:54.651Z,7.15
2017-12-20T10:40:21.879Z,6.50
2017-12-20T10:42:48.310Z,6.30
2017-12-20T10:45:15.491Z,6.80
2017-12-20T10:47:42.694Z,6.07
2017-12-20T10:50:09.188Z,6.60
2017-12-20T10:52:35.667Z,6.65
2017-12-20T10:55:03.159Z,6.60
2017-12-20T10:57:30.400Z,6.07
2017-12-20T10:59:56.854Z,6.60
2017-12-20T11:02:24.054Z,6.35
2017-12-20T11:04:50.536Z,6.03
2017-12-20T11:07:16.985Z,5.32
2017-12-20T11:09:43.454Z,6.22
2017-12-20T11:12:09.950Z,6.30
2017-12-20T11:14:36.424Z,5.85
2017-12-20T11:17:02.917Z,6.15
2017-12-20T11:19:30.243Z,6.28
2017-12-20T11:21:56.746Z,5.97
2017-12-20T11:24:23.278Z,5.97
2017-12-20T11:26:49.812Z,5.53
2017-12-20T11:29:16.365Z,5.57
2017-12-20T11:31:42.916Z,6.90
2017-12-20T11:34:09.417Z,8.23
2017-12-20T11:36:35.871Z,7.00
2017-12-20T11:39:02.598Z,7.60
2017-12-20T11:41:29.059Z,6.50
2017-12-20T11:43:55.841Z,7.90
2017-12-20T11:46:22.301Z,5.47
2017-12-20T11:48:48.888Z,6.28
2017-12-20T11:51:15.372Z,6.97
2017-12-20T11:53:41.869Z,7.30
2017-12-20T11:56:08.314Z,6.18
2017-12-20T11:58:34.778Z,6.12
2017-12-20T12:01:01.365Z,7.15
2017-12-20T12:03:27.863Z,8.02
2017-12-20T12:05:54.740Z,7.28
2017-12-20T12:08:21.313Z,8.00
2017-12-20T12:10:47.865Z,7.75
2017-12-20T12:13:14.340Z,9.77
2017-12-20T12:15:41.666Z,8.30
2017-12-20T12:18:08.924Z,9.63
2017-12-20T12:20:36.112Z,9.05
2017-12-20T12:23:02.627Z,6.53
2017-12-20T12:25:29.878Z,7.50
2017-12-20T12:27:56.307Z,7.93
2017-12-20T12:30:22.832Z,6.80
2017-12-20T12:32:50.013Z,7.55
2017-12-20T12:35:16.469Z,7.60
2017-12-20T12:37:42.917Z,7.07
2017-12-20T12:40:09.370Z,6.70
2017-12-20T12:42:35.819Z,6.87
2017-12-20T12:45:03.021Z,6.57
2017-12-20T12:47:29.554Z,6.10
2017-12-20T12:49:55.999Z,6.40
2017-12-20T12:52:22.426Z,6.72
2017-12-20T12:54:48.878Z,6.75
2017-12-20T12:57:15.346Z,6.78
2017-12-20T12:59:41.825Z,7.95
2017-12-20T13:02:08.361Z,6.60
2017-12-20T13:04:34.821Z,9.20
2017-12-20T13:07:02.119Z,7.55
2017-12-20T13:09:28.692Z,6.65
2017-12-20T13:11:55.126Z,5.75
2017-12-20T13:14:21.613Z,6.43
2017-12-20T13:16:48.120Z,7.72
2017-12-20T13:19:14.600Z,7.72
2017-12-20T13:21:41.058Z,8.15
2017-12-20T13:24:07.540Z,8.00
2017-12-20T13:26:34.707Z,9.00
2017-12-20T13:29:01.154Z,8.70
2017-12-20T13:31:27.738Z,10.70
2017-12-20T13:33:54.189Z,7.22
2017-12-20T13:36:20.641Z,8.15
2017-12-20T13:38:47.834Z,6.95
2017-12-20T13:41:14.469Z,6.80
2017-12-20T13:43:40.910Z,6.55
2017-12-20T13:46:07.416Z,5.95
2017-12-20T13:48:33.907Z,6.93
2017-12-20T13:51:00.382Z,7.95
2017-12-20T13:53:26.850Z,6.47
2017-12-20T13:55:53.353Z,6.40
2017-12-20T13:58:19.844Z,5.50
2017-12-20T14:00:47.154Z,5.90
2017-12-20T14:03:13.606Z,5.95
2017-12-20T14:05:40.065Z,6.35
2017-12-20T14:08:07.313Z,7.82
2017-12-20T14:10:34.500Z,6.35
2017-12-20T14:13:01.045Z,9.38
2017-12-20T14:15:27.806Z,13.20
2017-12-20T14:17:54.233Z,12.18
2017-12-20T14:20:20.713Z,18.65
2017-12-20T14:22:47.996Z,20.05
2017-12-20T14:25:15.289Z,4.20
2017-12-20T14:27:41.777Z,4.50
2017-12-20T14:30:08.253Z,3.22
2017-12-20T14:32:34.765Z,3.90
2017-12-20T14:35:01.189Z,4.20
2017-12-20T14:37:27.624Z,2.58
2017-12-20T14:39:54.085Z,2.50
2017-12-20T14:42:20.574Z,2.05
2017-12-20T14:44:47.037Z,2.65
2017-12-20T14:47:13.494Z,4.85
2017-12-20T14:49:39.908Z,3.00
2017-12-20T14:52:06.344Z,2.65
2017-12-20T14:54:32.857Z,2.70
2017-12-20T14:56:59.364Z,3.10
2017-12-20T14:59:26.578Z,2.50
2017-12-20T15:01:53.072Z,2.92
2017-12-20T15:04:19.569Z,2.20
2017-12-20T15:06:46.813Z,2.55
2017-12-20T15:09:13.300Z,2.75
2017-12-20T15:11:39.786Z,5.65
2017-12-20T15:14:06.262Z,3.30
2017-12-20T15:16:32.758Z,3.05
2017-12-20T15:19:00.002Z,3.50
2017-12-20T15:21:27.229Z,6.20
2017-12-20T15:23:53.813Z,6.43
2017-12-20T15:26:21.026Z,7.78
2017-12-20T15:28:47.537Z,4.30
2017-12-20T15:31:14.284Z,5.10
2017-12-20T15:33:40.754Z,5.22
2017-12-20T15:36:07.942Z,4.72
2017-12-20T15:38:34.484Z,18.50
2017-12-20T15:41:00.962Z,19.87
2017-12-20T15:43:28.213Z,22.92
2017-12-20T15:45:54.672Z,8.82
2017-12-20T15:48:21.191Z,6.10
2017-12-20T15:50:48.419Z,4.72
2017-12-20T15:53:14.857Z,5.18
2017-12-20T15:55:42.173Z,5.40
2017-12-20T15:58:08.637Z,4.85
2017-12-20T16:00:35.092Z,5.18
2017-12-20T16:03:03.082Z,3.58
2017-12-20T16:05:30.241Z,3.83
2017-12-20T16:07:56.877Z,3.60
2017-12-20T16:10:23.327Z,4.25
2017-12-20T16:12:49.800Z,5.25
2017-12-20T16:15:16.529Z,5.75
2017-12-20T16:17:42.978Z,6.12
2017-12-20T16:20:09.447Z,4.37
2017-12-20T16:22:35.941Z,4.05
2017-12-20T16:25:02.378Z,4.70
2017-12-20T16:27:28.841Z,4.85
2017-12-20T16:29:56.038Z,4.43
2017-12-20T16:32:22.590Z,4.57
2017-12-20T16:34:49.131Z,4.45
2017-12-20T16:37:15.609Z,4.35
2017-12-20T16:39:42.101Z,4.07
2017-12-20T16:42:08.582Z,50.47
2017-12-20T16:44:35.037Z,6.43
2017-12-20T16:47:01.530Z,5.53
2017-12-20T16:49:28.713Z,13.98
2017-12-20T16:51:56.034Z,85.05
2017-12-20T16:54:23.258Z,26.00
2017-12-20T16:56:49.696Z,9.43
2017-12-20T16:59:16.241Z,8.43
2017-12-20T17:01:43.487Z,5.30
2017-12-20T17:04:09.930Z,5.50
2017-12-20T17:06:37.212Z,18.55
2017-12-20T17:09:03.738Z,16.62
2017-12-20T17:11:30.959Z,9.77
2017-12-20T17:13:57.440Z,8.45
2017-12-20T17:16:23.900Z,7.95
2017-12-20T17:18:50.388Z,7.40
2017-12-20T17:21:16.995Z,6.50
2017-12-20T17:23:43.429Z,7.10
2017-12-20T17:26:10.669Z,6.25
2017-12-20T17:28:37.212Z,10.00
2017-12-20T17:31:03.766Z,7.90
2017-12-20T17:33:30.233Z,5.62
2017-12-20T17:35:56.724Z,4.03
2017-12-20T17:38:23.957Z,4.40
2017-12-20T17:40:50.417Z,4.18
2017-12-20T17:43:17.634Z,3.87
2017-12-20T17:45:44.186Z,4.70
2017-12-20T17:48:10.682Z,4.65
2017-12-20T17:50:37.203Z,5.25
2017-12-20T17:53:03.680Z,4.75
2017-12-20T17:55:30.149Z,5.82
2017-12-20T17:57:57.534Z,7.32
2017-12-20T18:00:24.064Z,14.23
2017-12-20T18:02:50.563Z,8.27
2017-12-20T18:05:17.298Z,6.68
2017-12-20T18:07:43.783Z,6.85
2017-12-20T18:10:10.272Z,6.80
2017-12-20T18:12:37.513Z,11.05
2017-12-20T18:15:04.032Z,9.45
2017-12-20T18:17:30.480Z,9.98
2017-12-20T18:19:57.658Z,10.25
2017-12-20T18:22:24.859Z,10.25
2017-12-20T18:24:51.370Z,11.80
2017-12-20T18:27:17.869Z,11.02
2017-12-20T18:29:45.060Z,11.98
2017-12-20T18:32:11.522Z,11.77
2017-12-20T18:34:37.959Z,9.68
2017-12-20T18:37:04.434Z,11.75
2017-12-20T18:39:30.987Z,16.98
2017-12-20T18:41:57.515Z,13.70
2017-12-20T18:44:24.059Z,16.80
2017-12-20T18:46:50.541Z,10.27
2017-12-20T18:49:17.796Z,9.30
2017-12-20T18:51:44.282Z,9.97
2017-12-20T18:54:10.759Z,7.72
2017-12-20T18:56:37.440Z,9.35
2017-12-20T18:59:03.909Z,8.80
2017-12-20T19:01:30.421Z,8.50
2017-12-20T19:03:57.362Z,7.47
2017-12-20T19:06:25.391Z,7.43
2017-12-20T19:08:52.106Z,7.85
2017-12-20T19:11:18.596Z,9.07
2017-12-20T19:13:45.092Z,9.52
2017-12-20T19:16:11.576Z,9.13
2017-12-20T19:18:38.020Z,10.43
2017-12-20T19:21:06.146Z,9.30
2017-12-20T19:23:33.320Z,13.23
2017-12-20T19:25:59.914Z,15.40
2017-12-20T19:28:27.178Z,12.88
2017-12-20T19:30:53.662Z,11.88
2017-12-20T19:33:20.209Z,11.40
2017-12-20T19:35:46.718Z,13.18
2017-12-20T19:38:13.179Z,13.27
2017-12-20T19:40:39.694Z,13.68
2017-12-20T19:43:06.148Z,13.60
2017-12-20T19:45:32.633Z,14.80
2017-12-20T19:47:59.101Z,13.70
2017-12-20T19:50:25.621Z,14.50
2017-12-20T19:52:52.129Z,12.27
2017-12-20T19:55:19.483Z,13.07
2017-12-20T19:57:45.960Z,12.90
2017-12-20T20:00:12.422Z,13.15
2017-12-20T20:02:39.113Z,14.30
2017-12-20T20:05:05.582Z,13.65
2017-12-20T20:07:32.059Z,13.00
2017-12-20T20:09:59.230Z,14.23
2017-12-20T20:12:25.685Z,13.27
2017-12-20T20:14:52.178Z,19.52
2017-12-20T20:17:19.366Z,17.70
2017-12-20T20:19:45.815Z,23.75
2017-12-20T20:22:12.275Z,26.15
2017-12-20T20:24:38.909Z,24.42
2017-12-20T20:27:05.350Z,26.00
2017-12-20T20:29:31.913Z,27.65
2017-12-20T20:31:58.366Z,21.35
2017-12-20T20:34:24.843Z,25.10
2017-12-20T20:36:52.088Z,19.73
2017-12-20T20:39:18.517Z,21.95
2017-12-20T20:41:44.984Z,19.42
2017-12-20T20:44:11.467Z,20.23
2017-12-20T20:46:37.917Z,19.65
2017-12-20T20:49:04.404Z,22.30
2017-12-20T20:51:30.867Z,21.17
2017-12-20T20:53:57.318Z,19.77
2017-12-20T20:56:24.506Z,20.15
2017-12-20T20:58:51.730Z,21.42
2017-12-20T21:01:18.277Z,20.48
2017-12-20T21:03:44.766Z,22.15
2017-12-20T21:06:11.212Z,20.50
2017-12-20T21:08:37.654Z,19.40
2017-12-20T21:11:04.133Z,19.30
2017-12-20T21:13:30.581Z,19.40
2017-12-20T21:15:57.078Z,19.83
2017-12-20T21:18:23.534Z,20.37
2017-12-20T21:20:50.001Z,20.35
2017-12-20T21:23:16.448Z,19.42
2017-12-20T21:25:42.888Z,20.62
2017-12-20T21:28:09.352Z,19.65
2017-12-20T21:30:37.012Z,20.95
2017-12-20T21:33:04.310Z,19.50
2017-12-20T21:35:30.838Z,20.92
2017-12-20T21:37:57.293Z,21.05
2017-12-20T21:40:24.646Z,20.10
2017-12-20T21:42:51.124Z,19.73
2017-12-20T21:45:17.609Z,19.27
2017-12-20T21:47:44.088Z,18.02
2017-12-20T21:50:10.603Z,20.52
2017-12-20T21:52:37.111Z,21.60
2017-12-20T21:55:03.601Z,21.02
2017-12-20T21:57:30.797Z,22.10
2017-12-20T21:59:57.296Z,21.10
2017-12-20T22:02:24.530Z,20.58
2017-12-20T22:04:51.043Z,21.35
2017-12-20T22:07:17.594Z,21.10
2017-12-20T22:09:44.097Z,20.98
2017-12-20T22:12:10.573Z,23.52
2017-12-20T22:14:37.142Z,22.70
2017-12-20T22:17:03.605Z,19.60
2017-12-20T22:19:30.090Z,19.58
2017-12-20T22:21:56.541Z,21.20
2017-12-20T22:24:23.264Z,21.48
2017-12-20T22:26:50.424Z,19.10
2017-12-20T22:29:16.942Z,25.15
2017-12-20T22:31:43.428Z,20.30
2017-12-20T22:34:09.861Z,20.05
2017-12-20T22:36:36.416Z,21.02
2017-12-20T22:39:03.111Z,18.95
2017-12-20T22:41:29.716Z,20.90
2017-12-20T22:43:56.919Z,19.30
2017-12-20T22:46:23.414Z,18.23
2017-12-20T22:48:49.869Z,19.67
2017-12-20T22:51:16.354Z,18.42
2017-12-20T22:53:42.837Z,18.35
2017-12-20T22:56:09.278Z,16.37
2017-12-20T22:58:35.718Z,15.95
2017-12-20T23:01:02.126Z,16.48
2017-12-20T23:03:28.701Z,15.93
2017-12-20T23:05:55.885Z,18.02
2017-12-20T23:08:23.061Z,16.05
2017-12-20T23:10:49.499Z,15.35
2017-12-20T23:13:15.956Z,15.20
2017-12-20T23:15:42.684Z,16.42
2017-12-20T23:18:09.098Z,14.32
2017-12-20T23:20:35.591Z,13.85
2017-12-20T23:23:02.053Z,14.87
2017-12-20T23:25:28.533Z,14.40
2017-12-20T23:27:54.994Z,15.68
2017-12-20T23:30:22.189Z,14.87
2017-12-20T23:32:48.634Z,14.93
2017-12-20T23:35:15.100Z,15.07
2017-12-20T23:37:41.536Z,13.45
2017-12-20T23:40:08.078Z,13.68
2017-12-20T23:42:34.534Z,14.23
2017-12-20T23:45:01.019Z,14.52
2017-12-20T23:47:27.568Z,14.30
2017-12-20T23:49:53.999Z,13.48
2017-12-20T23:52:21.251Z,13.10
2017-12-20T23:54:47.696Z,14.90
2017-12-20T23:57:14.884Z,14.80
2017-12-20T23:59:41.313Z,14.30
